Time;durP1;ratioP1;P1;durP2;ratioP2;P2;SDS_P1;SDS_P2;PMS_P1;PMS_P2;Temp;Humidity;BMP_temperature;BMP_pressure;BME280_temperature;BME280_humidity;BME280_pressure;Samples;Min_cycle;Max_cycle;Signal;HPM_P1;HPM_P2
2022/01/11 00:00:03;;;;;;;136.38;26.63;;;;;;;;;;4926859;29;20098;-78
2022/01/11 00:02:30;;;;;;;108.15;18.33;;;;;;;;;;4922296;29;20128;-78
2022/01/11 00:04:57;;;;;;;186.68;27.20;;;;;;;;;;4936180;28;20047;-78
2022/01/11 00:07:23;;;;;;;196.20;32.17;;;;;;;;;;4955899;28;20019;-78
2022/01/11 00:09:51;;;;;;;137.85;24.23;;;;;;;;;;4946462;28;20035;-79
2022/01/11 00:12:18;;;;;;;81.60;20.55;;;;;;;;;;4951778;28;20042;-79
2022/01/11 00:14:44;;;;;;;175.95;29.55;;;;;;;;;;4949708;28;20724;-79
2022/01/11 00:17:10;;;;;;;131.65;23.13;;;;;;;;;;4948151;28;20042;-79
2022/01/11 00:19:36;;;;;;;177.77;28.08;;;;;;;;;;4949816;28;20054;-78
2022/01/11 00:22:06;;;;;;;91.07;21.73;;;;;;;;;;4948746;28;20036;-78
2022/01/11 00:24:34;;;;;;;178.82;28.05;;;;;;;;;;4948964;28;20027;-79
2022/01/11 00:27:02;;;;;;;209.13;32.13;;;;;;;;;;4945770;28;20126;-79
2022/01/11 00:29:29;;;;;;;110.70;24.33;;;;;;;;;;4961500;28;20158;-78
2022/01/11 00:31:59;;;;;;;158.00;31.08;;;;;;;;;;4963052;28;20535;-78
2022/01/11 00:34:28;;;;;;;114.13;22.75;;;;;;;;;;4961924;28;20031;-78
2022/01/11 00:36:54;;;;;;;118.80;22.85;;;;;;;;;;4945476;28;20042;-78
2022/01/11 00:39:20;;;;;;;97.03;18.60;;;;;;;;;;4946282;28;20039;-79
2022/01/11 00:41:46;;;;;;;108.55;24.67;;;;;;;;;;4937592;28;20611;-78
2022/01/11 00:44:13;;;;;;;101.55;20.70;;;;;;;;;;4944495;28;20376;-79
2022/01/11 00:46:40;;;;;;;96.28;21.45;;;;;;;;;;4943947;28;20030;-78
2022/01/11 00:49:06;;;;;;;86.57;19.58;;;;;;;;;;4964364;28;20475;-79
2022/01/11 00:51:32;;;;;;;96.15;21.85;;;;;;;;;;4944267;28;20038;-79
2022/01/11 00:53:58;;;;;;;79.53;20.27;;;;;;;;;;4963035;28;20035;-79
2022/01/11 00:56:25;;;;;;;72.70;19.75;;;;;;;;;;4943684;28;20039;-78
2022/01/11 00:58:51;;;;;;;93.90;20.80;;;;;;;;;;4957645;28;20058;-78
2022/01/11 01:01:17;;;;;;;75.82;20.10;;;;;;;;;;4960985;28;20034;-78
2022/01/11 01:03:43;;;;;;;45.05;13.65;;;;;;;;;;4945861;28;20984;-79
2022/01/11 01:06:09;;;;;;;60.60;19.40;;;;;;;;;;4946928;28;20055;-79
2022/01/11 01:08:35;;;;;;;71.97;17.95;;;;;;;;;;4959006;28;20038;-79
2022/01/11 01:11:01;;;;;;;81.07;17.90;;;;;;;;;;4944288;28;20501;-79
2022/01/11 01:13:29;;;;;;;91.78;17.65;;;;;;;;;;4941176;28;20031;-79
2022/01/11 01:15:56;;;;;;;122.20;22.20;;;;;;;;;;4963578;28;20128;-79
2022/01/11 01:18:23;;;;;;;58.67;18.02;;;;;;;;;;4947102;28;20062;-80
2022/01/11 01:20:50;;;;;;;63.58;21.38;;;;;;;;;;4949794;28;20038;-79
2022/01/11 01:23:17;;;;;;;82.97;19.70;;;;;;;;;;4945768;28;20337;-79
2022/01/11 01:25:44;;;;;;;165.75;26.58;;;;;;;;;;4946044;28;20124;-78
2022/01/11 01:28:10;;;;;;;59.70;18.20;;;;;;;;;;4962534;28;20117;-79
2022/01/11 01:30:36;;;;;;;82.43;21.27;;;;;;;;;;4957421;28;20031;-79
2022/01/11 01:33:03;;;;;;;102.70;21.10;;;;;;;;;;4947783;28;20070;-78
2022/01/11 01:35:35;;;;;;;118.60;20.08;;;;;;;;;;4945257;28;20604;-78
2022/01/11 01:38:02;;;;;;;160.20;25.58;;;;;;;;;;4946457;28;20038;-79
2022/01/11 01:40:35;;;;;;;69.50;18.58;;;;;;;;;;4944305;28;20727;-79
2022/01/11 01:43:02;;;;;;;212.40;23.98;;;;;;;;;;4952043;28;20050;-79
2022/01/11 01:45:28;;;;;;;148.93;22.17;;;;;;;;;;4948635;28;20031;-79
2022/01/11 01:47:57;;;;;;;175.95;24.00;;;;;;;;;;4962988;28;20096;-79
2022/01/11 01:50:24;;;;;;;100.22;20.10;;;;;;;;;;4945443;28;20105;-79
2022/01/11 01:52:50;;;;;;;136.32;23.65;;;;;;;;;;4940650;28;20663;-79
2022/01/11 01:55:16;;;;;;;94.57;19.35;;;;;;;;;;4963880;28;20030;-79
2022/01/11 01:57:42;;;;;;;87.38;17.92;;;;;;;;;;4941682;28;20027;-79
2022/01/11 02:00:11;;;;;;;47.13;16.30;;;;;;;;;;4942796;28;20035;-78
2022/01/11 02:02:38;;;;;;;41.22;17.50;;;;;;;;;;4940891;28;20039;-79
2022/01/11 02:05:11;;;;;;;44.22;18.15;;;;;;;;;;4946246;28;20121;-79
2022/01/11 02:07:44;;;;;;;39.95;17.20;;;;;;;;;;4940684;28;20613;-79
2022/01/11 02:10:10;;;;;;;43.20;18.73;;;;;;;;;;4943559;28;20042;-79
2022/01/11 02:12:36;;;;;;;67.38;20.20;;;;;;;;;;4928714;28;20406;-79
2022/01/11 02:15:03;;;;;;;56.78;19.25;;;;;;;;;;4929525;29;20038;-79
2022/01/11 02:17:30;;;;;;;64.18;20.88;;;;;;;;;;4943675;28;20646;-79
2022/01/11 02:19:57;;;;;;;64.93;20.92;;;;;;;;;;4926904;29;20534;-80
2022/01/11 02:22:23;;;;;;;73.15;18.85;;;;;;;;;;4930915;29;20027;-79
2022/01/11 02:24:50;;;;;;;45.03;17.20;;;;;;;;;;4928744;29;20058;-79
2022/01/11 02:27:16;;;;;;;63.08;20.42;;;;;;;;;;4925092;28;20030;-79
2022/01/11 02:29:42;;;;;;;71.85;21.08;;;;;;;;;;4925954;28;20039;-79
2022/01/11 02:32:09;;;;;;;96.03;20.58;;;;;;;;;;4935418;28;20388;-79
2022/01/11 02:34:35;;;;;;;109.70;21.23;;;;;;;;;;4931980;29;20027;-79
2022/01/11 02:37:01;;;;;;;102.55;21.23;;;;;;;;;;4924557;28;20035;-79
2022/01/11 02:39:27;;;;;;;126.90;22.42;;;;;;;;;;4944288;28;20035;-79
2022/01/11 02:41:54;;;;;;;85.63;21.10;;;;;;;;;;4930767;28;20028;-79
2022/01/11 02:44:20;;;;;;;86.32;19.33;;;;;;;;;;4929956;29;20035;-80
2022/01/11 02:46:47;;;;;;;117.80;25.48;;;;;;;;;;4924196;28;20485;-79
2022/01/11 02:49:13;;;;;;;74.05;19.95;;;;;;;;;;4927547;28;20244;-79
2022/01/11 02:51:39;;;;;;;63.67;20.65;;;;;;;;;;4923921;28;20102;-79
2022/01/11 02:54:05;;;;;;;88.13;23.20;;;;;;;;;;4928009;28;20028;-78
2022/01/11 02:56:32;;;;;;;94.53;19.25;;;;;;;;;;4927517;29;20542;-79
2022/01/11 02:58:59;;;;;;;148.82;20.95;;;;;;;;;;4928378;28;20039;-80
2022/01/11 03:01:25;;;;;;;186.02;29.35;;;;;;;;;;4927972;28;20039;-80
2022/01/11 03:03:52;;;;;;;216.73;27.00;;;;;;;;;;4935360;28;20027;-79
2022/01/11 03:06:18;;;;;;;152.57;24.67;;;;;;;;;;4943214;28;20097;-79
2022/01/11 03:08:46;;;;;;;150.00;23.88;;;;;;;;;;4928807;28;20427;-79
2022/01/11 03:11:13;;;;;;;143.70;23.05;;;;;;;;;;4965055;28;20026;-80
2022/01/11 03:13:41;;;;;;;124.35;20.83;;;;;;;;;;4944168;28;20498;-79
2022/01/11 03:16:07;;;;;;;113.18;19.85;;;;;;;;;;4946196;28;20023;-79
2022/01/11 03:18:34;;;;;;;199.77;24.05;;;;;;;;;;4963987;28;20447;-79
2022/01/11 03:21:03;;;;;;;128.18;22.23;;;;;;;;;;4946280;28;20070;-79
2022/01/11 03:23:30;;;;;;;189.80;24.95;;;;;;;;;;4948446;28;20027;-79
2022/01/11 03:25:56;;;;;;;103.90;20.58;;;;;;;;;;4948523;28;20066;-79
2022/01/11 03:28:24;;;;;;;134.85;22.80;;;;;;;;;;4945209;28;20416;-79
2022/01/11 03:30:51;;;;;;;140.95;21.73;;;;;;;;;;4943042;28;20036;-79
2022/01/11 03:33:17;;;;;;;105.20;21.08;;;;;;;;;;4946640;28;20031;-79
2022/01/11 03:35:43;;;;;;;130.35;23.23;;;;;;;;;;4941489;28;20148;-80
2022/01/11 03:38:11;;;;;;;136.82;22.30;;;;;;;;;;4962754;28;20163;-79
2022/01/11 03:40:37;;;;;;;97.03;20.75;;;;;;;;;;4964192;28;20043;-79
2022/01/11 03:43:03;;;;;;;53.92;12.18;;;;;;;;;;4963897;28;20479;-79
2022/01/11 03:45:29;;;;;;;70.45;18.00;;;;;;;;;;4942012;28;20027;-79
2022/01/11 03:47:57;;;;;;;88.93;16.52;;;;;;;;;;4939072;28;20593;-79
2022/01/11 03:50:24;;;;;;;147.38;22.42;;;;;;;;;;4942269;28;20767;-79
2022/01/11 03:52:58;;;;;;;102.57;20.65;;;;;;;;;;4942668;28;20104;-80
2022/01/11 03:55:43;;;;;;;125.15;25.38;;;;;;;;;;4945085;28;20254;-80
2022/01/11 03:58:10;;;;;;;137.98;19.70;;;;;;;;;;4946479;28;20041;-79
2022/01/11 04:00:36;;;;;;;140.70;24.00;;;;;;;;;;4948184;28;20487;-80
2022/01/11 04:03:03;;;;;;;214.98;31.65;;;;;;;;;;4959710;28;20037;-79
2022/01/11 04:05:30;;;;;;;145.45;27.58;;;;;;;;;;4967189;28;20178;-79
2022/01/11 04:07:55;;;;;;;217.30;35.95;;;;;;;;;;4944634;28;20089;-79
2022/01/11 04:10:21;;;;;;;272.73;33.75;;;;;;;;;;4961551;28;20027;-79
2022/01/11 04:12:49;;;;;;;262.35;34.65;;;;;;;;;;4947021;28;20043;-79
2022/01/11 04:15:15;;;;;;;188.57;25.65;;;;;;;;;;4942963;28;20022;-79
2022/01/11 04:17:41;;;;;;;166.88;29.10;;;;;;;;;;4960819;28;20452;-79
2022/01/11 04:20:07;;;;;;;272.80;32.95;;;;;;;;;;4958573;28;20057;-79
2022/01/11 04:22:34;;;;;;;169.32;30.40;;;;;;;;;;4946683;28;20114;-79
2022/01/11 04:24:59;;;;;;;231.48;29.15;;;;;;;;;;4946427;28;20031;-79
2022/01/11 04:27:26;;;;;;;201.02;27.83;;;;;;;;;;4948686;28;20027;-79
2022/01/11 04:29:52;;;;;;;189.90;27.90;;;;;;;;;;4949672;28;20089;-78
2022/01/11 04:32:18;;;;;;;197.57;29.65;;;;;;;;;;4949076;28;20545;-79
2022/01/11 04:34:44;;;;;;;215.35;31.85;;;;;;;;;;4961606;28;20035;-79
2022/01/11 04:37:10;;;;;;;166.32;25.50;;;;;;;;;;4945667;28;20073;-80
2022/01/11 04:39:36;;;;;;;190.18;27.95;;;;;;;;;;4948904;28;20038;-79
2022/01/11 04:42:02;;;;;;;207.20;29.45;;;;;;;;;;4942787;28;20125;-79
2022/01/11 04:44:28;;;;;;;194.13;27.90;;;;;;;;;;4945590;28;20415;-80
2022/01/11 04:46:55;;;;;;;199.95;27.98;;;;;;;;;;4941719;28;20070;-79
2022/01/11 04:49:21;;;;;;;110.85;20.52;;;;;;;;;;4949837;28;20050;-79
2022/01/11 04:51:47;;;;;;;181.05;26.88;;;;;;;;;;4947059;28;20142;-79
2022/01/11 04:54:13;;;;;;;125.18;22.98;;;;;;;;;;4956016;28;20149;-79
2022/01/11 04:56:39;;;;;;;117.72;25.48;;;;;;;;;;4947008;28;20027;-79
2022/01/11 04:59:06;;;;;;;218.65;30.33;;;;;;;;;;4942818;28;20039;-79
2022/01/11 05:01:33;;;;;;;172.80;25.85;;;;;;;;;;4948284;28;20616;-79
2022/01/11 05:03:59;;;;;;;174.60;25.33;;;;;;;;;;4943725;28;20035;-79
2022/01/11 05:06:25;;;;;;;160.85;27.00;;;;;;;;;;4944390;28;20059;-80
2022/01/11 05:08:51;;;;;;;111.72;21.75;;;;;;;;;;4955868;28;20047;-79
2022/01/11 05:11:18;;;;;;;132.68;26.73;;;;;;;;;;4948903;28;20062;-79
2022/01/11 05:13:44;;;;;;;88.10;22.08;;;;;;;;;;4944359;28;20027;-79
2022/01/11 05:16:10;;;;;;;104.40;23.50;;;;;;;;;;4962377;28;20035;-80
2022/01/11 05:18:39;;;;;;;99.57;23.65;;;;;;;;;;4945203;28;20383;-79
2022/01/11 05:21:05;;;;;;;78.32;20.17;;;;;;;;;;4942397;28;20031;-79
2022/01/11 05:23:32;;;;;;;81.70;23.20;;;;;;;;;;4945973;28;20064;-80
2022/01/11 05:25:58;;;;;;;70.55;21.27;;;;;;;;;;4959587;28;20494;-79
2022/01/11 05:28:25;;;;;;;67.88;21.05;;;;;;;;;;4946591;28;20027;-79
2022/01/11 05:30:50;;;;;;;86.05;23.30;;;;;;;;;;4940726;28;20117;-79
2022/01/11 05:33:16;;;;;;;71.75;22.00;;;;;;;;;;4951689;28;20066;-79
2022/01/11 05:35:43;;;;;;;68.63;20.40;;;;;;;;;;4946610;28;20114;-79
2022/01/11 05:38:09;;;;;;;73.47;22.50;;;;;;;;;;4958433;28;20070;-79
2022/01/11 05:40:35;;;;;;;59.90;19.33;;;;;;;;;;4949452;28;20031;-79
2022/01/11 05:43:01;;;;;;;63.00;20.08;;;;;;;;;;4949901;28;20391;-79
2022/01/11 05:45:27;;;;;;;64.88;21.13;;;;;;;;;;4949818;28;20034;-79
2022/01/11 05:47:53;;;;;;;59.40;20.10;;;;;;;;;;4966409;28;20034;-79
2022/01/11 05:50:20;;;;;;;59.20;20.58;;;;;;;;;;4944944;28;20403;-79
2022/01/11 05:52:46;;;;;;;49.47;18.42;;;;;;;;;;4947830;28;20660;-79
2022/01/11 05:55:13;;;;;;;66.53;21.48;;;;;;;;;;4946705;28;20392;-79
2022/01/11 05:57:43;;;;;;;57.28;19.45;;;;;;;;;;4951661;28;20035;-79
2022/01/11 06:00:10;;;;;;;50.97;18.00;;;;;;;;;;4950308;28;20041;-79
2022/01/11 06:02:36;;;;;;;60.60;21.85;;;;;;;;;;4945775;28;20106;-79
2022/01/11 06:05:03;;;;;;;61.50;19.65;;;;;;;;;;4947679;28;20175;-80
2022/01/11 06:07:29;;;;;;;59.58;21.23;;;;;;;;;;4933785;28;20052;-80
2022/01/11 06:09:55;;;;;;;63.90;21.23;;;;;;;;;;4928747;28;20035;-79
2022/01/11 06:12:21;;;;;;;59.90;21.23;;;;;;;;;;4929507;28;20039;-80
2022/01/11 06:14:47;;;;;;;58.90;20.55;;;;;;;;;;4942545;28;20027;-79
2022/01/11 06:17:13;;;;;;;63.60;19.10;;;;;;;;;;4929506;29;20167;-80
2022/01/11 06:19:39;;;;;;;59.00;19.33;;;;;;;;;;4943729;28;20401;-79
2022/01/11 06:22:05;;;;;;;76.35;21.65;;;;;;;;;;4927804;28;20032;-79
2022/01/11 06:24:31;;;;;;;59.13;20.38;;;;;;;;;;4930708;29;20035;-79
2022/01/11 06:26:57;;;;;;;63.08;20.98;;;;;;;;;;4934331;28;20396;-80
2022/01/11 06:29:23;;;;;;;53.80;20.15;;;;;;;;;;4929028;29;20746;-79
2022/01/11 06:31:49;;;;;;;62.40;21.75;;;;;;;;;;4928215;29;20031;-79
2022/01/11 06:34:15;;;;;;;63.13;20.25;;;;;;;;;;4927262;29;20034;-79
2022/01/11 06:36:41;;;;;;;67.18;22.08;;;;;;;;;;4926493;28;20031;-79
2022/01/11 06:39:07;;;;;;;63.42;20.08;;;;;;;;;;4934305;29;20042;-79
2022/01/11 06:41:35;;;;;;;55.22;18.67;;;;;;;;;;4926316;28;20514;-79
2022/01/11 06:44:01;;;;;;;61.33;21.27;;;;;;;;;;4927108;29;20027;-79
2022/01/11 06:46:28;;;;;;;54.42;19.95;;;;;;;;;;4923782;28;20023;-80
2022/01/11 06:48:57;;;;;;;72.43;20.88;;;;;;;;;;4932963;28;20031;-79
2022/01/11 06:51:23;;;;;;;59.15;19.67;;;;;;;;;;4932835;28;20484;-79
2022/01/11 06:53:49;;;;;;;72.88;21.67;;;;;;;;;;4948482;28;20118;-79
2022/01/11 06:56:17;;;;;;;55.67;20.15;;;;;;;;;;4927548;29;20179;-79
2022/01/11 06:58:43;;;;;;;72.78;20.40;;;;;;;;;;4928137;28;20039;-78
2022/01/11 07:01:09;;;;;;;65.88;20.83;;;;;;;;;;4930138;28;20035;-80
2022/01/11 07:03:35;;;;;;;65.13;21.48;;;;;;;;;;4925884;29;20032;-79
2022/01/11 07:06:01;;;;;;;76.63;23.75;;;;;;;;;;4930699;28;20038;-79
2022/01/11 07:08:27;;;;;;;78.80;23.55;;;;;;;;;;4928376;29;20055;-79
2022/01/11 07:10:54;;;;;;;62.83;21.25;;;;;;;;;;4935714;28;20038;-79
2022/01/11 07:13:20;;;;;;;72.00;22.08;;;;;;;;;;4928924;28;20031;-79
2022/01/11 07:15:46;;;;;;;78.90;21.45;;;;;;;;;;4934810;28;20070;-80
2022/01/11 07:18:24;;;;;;;81.75;23.35;;;;;;;;;;4946774;28;20031;-79
2022/01/11 07:20:50;;;;;;;78.93;23.27;;;;;;;;;;4932888;28;20499;-79
2022/01/11 07:23:17;;;;;;;84.22;22.00;;;;;;;;;;4932181;29;20074;-79
2022/01/11 07:25:43;;;;;;;67.72;19.02;;;;;;;;;;4930520;28;20068;-79
2022/01/11 07:28:11;;;;;;;62.67;19.48;;;;;;;;;;4947117;28;20117;-79
2022/01/11 07:30:37;;;;;;;79.07;21.90;;;;;;;;;;4929474;29;20125;-80
2022/01/11 07:33:03;;;;;;;81.40;23.75;;;;;;;;;;4933379;28;20157;-79
2022/01/11 07:35:29;;;;;;;77.82;23.83;;;;;;;;;;4930346;29;20779;-79
2022/01/11 07:37:55;;;;;;;83.93;22.90;;;;;;;;;;4946008;28;20666;-79
2022/01/11 07:40:21;;;;;;;79.20;23.60;;;;;;;;;;4945677;28;20800;-79
2022/01/11 07:42:48;;;;;;;57.25;19.23;;;;;;;;;;4935204;28;20039;-79
2022/01/11 07:45:15;;;;;;;76.18;23.75;;;;;;;;;;4931792;29;20403;-79
2022/01/11 07:47:41;;;;;;;74.57;22.58;;;;;;;;;;4928904;28;20031;-79
2022/01/11 07:50:08;;;;;;;42.38;14.25;;;;;;;;;;4945314;28;20031;-80
2022/01/11 07:52:34;;;;;;;66.88;21.05;;;;;;;;;;4930837;29;20118;-79
2022/01/11 07:55:01;;;;;;;38.72;14.13;;;;;;;;;;4945579;28;20031;-79
2022/01/11 07:57:28;;;;;;;59.25;19.15;;;;;;;;;;4939096;28;20151;-79
2022/01/11 07:59:55;;;;;;;50.17;14.65;;;;;;;;;;4945188;28;20034;-79
2022/01/11 08:02:23;;;;;;;56.45;14.93;;;;;;;;;;4943184;28;20035;-79
2022/01/11 08:04:49;;;;;;;50.70;15.68;;;;;;;;;;4948789;28;20483;-79
2022/01/11 08:07:15;;;;;;;67.45;20.65;;;;;;;;;;4927178;28;20081;-79
2022/01/11 08:09:41;;;;;;;73.53;22.38;;;;;;;;;;4934423;29;20050;-79
2022/01/11 08:12:07;;;;;;;60.03;19.48;;;;;;;;;;4923584;29;20032;-79
2022/01/11 08:14:33;;;;;;;66.80;20.27;;;;;;;;;;4941619;28;20123;-79
2022/01/11 08:16:59;;;;;;;93.45;23.88;;;;;;;;;;4939184;28;20158;-79
2022/01/11 08:19:26;;;;;;;63.35;20.65;;;;;;;;;;4925410;29;20043;-79
2022/01/11 08:21:53;;;;;;;60.72;18.58;;;;;;;;;;4934790;28;20047;-79
2022/01/11 08:24:21;;;;;;;59.05;20.08;;;;;;;;;;4928517;29;20035;-79
2022/01/11 08:26:50;;;;;;;52.30;15.90;;;;;;;;;;4924830;29;20038;-80
2022/01/11 08:29:18;;;;;;;47.30;18.73;;;;;;;;;;4927180;29;20394;-79
2022/01/11 08:31:45;;;;;;;44.33;13.38;;;;;;;;;;4941067;28;20043;-79
2022/01/11 08:34:13;;;;;;;41.33;14.00;;;;;;;;;;4925143;29;20085;-79
2022/01/11 08:36:40;;;;;;;41.60;15.00;;;;;;;;;;4941303;28;20715;-79
2022/01/11 08:39:06;;;;;;;64.43;19.85;;;;;;;;;;4946628;28;20031;-80
2022/01/11 08:41:32;;;;;;;59.47;19.05;;;;;;;;;;4939589;28;20031;-78
2022/01/11 08:43:58;;;;;;;33.08;11.65;;;;;;;;;;4925688;28;20527;-79
2022/01/11 08:46:24;;;;;;;58.75;19.98;;;;;;;;;;4928396;29;20023;-80
2022/01/11 08:48:50;;;;;;;69.30;22.63;;;;;;;;;;4928716;29;20286;-79
2022/01/11 08:51:16;;;;;;;48.65;17.10;;;;;;;;;;4943399;28;20041;-79
2022/01/11 08:53:42;;;;;;;43.65;14.25;;;;;;;;;;4919683;28;20031;-79
2022/01/11 08:56:08;;;;;;;36.63;13.02;;;;;;;;;;4928313;28;20191;-79
2022/01/11 08:58:34;;;;;;;69.55;21.25;;;;;;;;;;4924409;29;20604;-79
2022/01/11 09:01:01;;;;;;;55.65;16.98;;;;;;;;;;4925210;28;20492;-79
2022/01/11 09:03:27;;;;;;;36.03;14.48;;;;;;;;;;4936427;28;20035;-79
2022/01/11 09:05:53;;;;;;;57.97;19.65;;;;;;;;;;4946980;28;20610;-79
2022/01/11 09:08:19;;;;;;;28.00;10.02;;;;;;;;;;4961806;28;20105;-79
2022/01/11 09:10:45;;;;;;;66.03;23.02;;;;;;;;;;4945689;28;20065;-79
2022/01/11 09:13:11;;;;;;;15.18;8.60;;;;;;;;;;4948941;28;20688;-79
2022/01/11 09:15:38;;;;;;;48.38;16.70;;;;;;;;;;4945825;28;20452;-79
2022/01/11 09:18:04;;;;;;;51.72;16.85;;;;;;;;;;4943915;28;20047;-80
2022/01/11 09:20:31;;;;;;;36.33;12.18;;;;;;;;;;4946938;28;20511;-79
2022/01/11 09:22:57;;;;;;;49.83;20.20;;;;;;;;;;4964996;28;20057;-79
2022/01/11 09:25:23;;;;;;;55.58;19.05;;;;;;;;;;4964797;28;20031;-79
2022/01/11 09:27:49;;;;;;;40.38;15.75;;;;;;;;;;4961821;28;20495;-78
2022/01/11 09:30:15;;;;;;;42.90;14.45;;;;;;;;;;4962293;28;20073;-79
2022/01/11 09:32:42;;;;;;;58.28;17.88;;;;;;;;;;4949316;28;20486;-80
2022/01/11 09:35:10;;;;;;;54.55;18.10;;;;;;;;;;4961146;28;20086;-80
2022/01/11 09:37:36;;;;;;;67.50;18.58;;;;;;;;;;4961397;28;20066;-79
2022/01/11 09:40:03;;;;;;;43.10;15.23;;;;;;;;;;4946573;28;20030;-81
2022/01/11 09:42:29;;;;;;;54.92;17.17;;;;;;;;;;4950031;28;20047;-79
2022/01/11 09:44:58;;;;;;;59.95;17.17;;;;;;;;;;4947043;28;20030;-79
2022/01/11 09:47:24;;;;;;;41.17;15.00;;;;;;;;;;4945681;28;20034;-80
2022/01/11 09:49:50;;;;;;;50.83;16.30;;;;;;;;;;4946070;28;20028;-79
2022/01/11 09:52:16;;;;;;;39.95;16.20;;;;;;;;;;4959557;28;20492;-80
2022/01/11 09:54:46;;;;;;;38.28;12.98;;;;;;;;;;4949821;28;20035;-80
2022/01/11 09:57:12;;;;;;;12.55;5.95;;;;;;;;;;4944351;28;20047;-79
2022/01/11 09:59:39;;;;;;;29.80;10.60;;;;;;;;;;4943448;28;20514;-79
2022/01/11 10:02:05;;;;;;;38.13;14.48;;;;;;;;;;4964386;28;20031;-79
2022/01/11 10:04:32;;;;;;;37.65;14.05;;;;;;;;;;4948287;28;20027;-79
2022/01/11 10:06:59;;;;;;;34.75;13.43;;;;;;;;;;4938283;28;20051;-79
2022/01/11 10:09:27;;;;;;;31.70;13.13;;;;;;;;;;4923854;29;20024;-80
2022/01/11 10:11:55;;;;;;;34.00;12.13;;;;;;;;;;4926320;29;20094;-79
2022/01/11 10:14:26;;;;;;;30.90;11.90;;;;;;;;;;4925407;28;20395;-79
2022/01/11 10:17:08;;;;;;;26.10;10.93;;;;;;;;;;4926666;29;20165;-79
2022/01/11 10:19:35;;;;;;;28.63;9.88;;;;;;;;;;4940929;28;20068;-79
2022/01/11 10:22:02;;;;;;;12.38;5.25;;;;;;;;;;4938968;28;20046;-79
2022/01/11 10:24:32;;;;;;;28.88;12.13;;;;;;;;;;4928481;29;20023;-79
2022/01/11 10:26:58;;;;;;;16.48;7.45;;;;;;;;;;4927703;28;20492;-79
2022/01/11 10:29:26;;;;;;;30.00;13.40;;;;;;;;;;4931611;29;20053;-80
2022/01/11 10:31:54;;;;;;;34.55;13.48;;;;;;;;;;4942240;28;20028;-79
2022/01/11 10:34:27;;;;;;;25.67;11.57;;;;;;;;;;4932848;29;20034;-79
2022/01/11 10:36:53;;;;;;;28.10;12.45;;;;;;;;;;4928514;29;20625;-79
2022/01/11 10:39:31;;;;;;;13.32;5.07;;;;;;;;;;4929056;29;20059;-80
2022/01/11 10:41:58;;;;;;;13.77;6.10;;;;;;;;;;4928720;29;20495;-80
2022/01/11 10:44:43;;;;;;;14.73;7.30;;;;;;;;;;4927928;29;20511;-79
2022/01/11 10:47:09;;;;;;;36.47;12.73;;;;;;;;;;4943727;28;20031;-79
2022/01/11 10:49:36;;;;;;;30.17;12.50;;;;;;;;;;4922621;29;20028;-80
2022/01/11 10:52:22;;;;;;;27.08;10.07;;;;;;;;;;4932212;28;20043;-79
2022/01/11 10:54:48;;;;;;;;;;;;;;;;;;4929262;29;20032;-79
2022/01/11 10:57:18;;;;;;;29.60;10.63;;;;;;;;;;4928954;29;19917;-79
2022/01/11 11:00:02;;;;;;;35.03;14.02;;;;;;;;;;4938061;28;20533;-79
2022/01/11 11:02:29;;;;;;;33.03;13.30;;;;;;;;;;4938080;28;20032;-79
2022/01/11 11:04:55;;;;;;;32.42;13.77;;;;;;;;;;4927115;29;20062;-79
2022/01/11 11:07:35;;;;;;;27.23;11.38;;;;;;;;;;4954101;28;20083;-79
2022/01/11 11:10:01;;;;;;;26.95;11.35;;;;;;;;;;4957352;28;20030;-79
2022/01/11 11:12:28;;;;;;;27.95;11.60;;;;;;;;;;4948628;28;20735;-79
2022/01/11 11:14:59;;;;;;;12.75;6.75;;;;;;;;;;4951991;28;20043;-80
2022/01/11 11:17:30;;;;;;;33.00;13.50;;;;;;;;;;4941363;28;20046;-79
2022/01/11 11:20:01;;;;;;;25.08;10.00;;;;;;;;;;4950723;28;20046;-79
2022/01/11 11:22:30;;;;;;;25.50;11.90;;;;;;;;;;4945671;28;20035;-79
2022/01/11 11:24:57;;;;;;;24.05;9.25;;;;;;;;;;4944454;28;20113;-79
2022/01/11 11:27:24;;;;;;;27.20;11.80;;;;;;;;;;4972182;28;20076;-80
2022/01/11 11:29:51;;;;;;;20.77;11.38;;;;;;;;;;4943413;28;20101;-79
2022/01/11 11:32:18;;;;;;;30.08;13.02;;;;;;;;;;4950162;28;20039;-79
2022/01/11 11:34:45;;;;;;;9.85;6.70;;;;;;;;;;4947557;28;20111;-79
2022/01/11 11:37:14;;;;;;;16.88;8.50;;;;;;;;;;4950188;28;20643;-79
2022/01/11 11:39:41;;;;;;;27.10;12.38;;;;;;;;;;4943799;28;20074;-79
2022/01/11 11:42:10;;;;;;;35.55;10.63;;;;;;;;;;4939338;28;20073;-80
2022/01/11 11:44:37;;;;;;;22.95;11.70;;;;;;;;;;4944080;28;21360;-79
2022/01/11 11:47:05;;;;;;;23.55;10.85;;;;;;;;;;4952238;28;20085;-79
2022/01/11 11:49:51;;;;;;;21.42;10.73;;;;;;;;;;4947348;28;20073;-79
2022/01/11 11:52:24;;;;;;;26.85;12.45;;;;;;;;;;4950579;28;20030;-79
2022/01/11 11:54:57;;;;;;;21.83;8.93;;;;;;;;;;4946425;28;20023;-79
2022/01/11 11:57:25;;;;;;;20.33;8.05;;;;;;;;;;4963493;28;20466;-80
2022/01/11 12:00:06;;;;;;;22.85;10.55;;;;;;;;;;4941078;28;20030;-79
2022/01/11 12:02:40;;;;;;;26.70;11.95;;;;;;;;;;4959189;28;20066;-80
2022/01/11 12:05:07;;;;;;;26.80;9.65;;;;;;;;;;4943850;28;20066;-79
2022/01/11 12:07:40;;;;;;;33.20;13.60;;;;;;;;;;4948849;28;20459;-80
2022/01/11 12:10:09;;;;;;;20.95;8.70;;;;;;;;;;4960261;28;20086;-79
2022/01/11 12:12:41;;;;;;;27.33;11.75;;;;;;;;;;4946581;28;20113;-79
2022/01/11 12:15:22;;;;;;;15.38;7.35;;;;;;;;;;4944899;28;20030;-79
2022/01/11 12:17:58;;;;;;;30.10;11.23;;;;;;;;;;4967835;28;20634;-79
2022/01/11 12:20:39;;;;;;;32.75;12.43;;;;;;;;;;4954861;28;20043;-80
2022/01/11 12:23:05;;;;;;;28.30;11.20;;;;;;;;;;4944174;28;20126;-79
2022/01/11 12:25:33;;;;;;;24.33;10.57;;;;;;;;;;4959943;28;20494;-79
2022/01/11 12:28:06;;;;;;;32.83;11.13;;;;;;;;;;4955052;28;20037;-80
2022/01/11 12:30:33;;;;;;;28.33;12.77;;;;;;;;;;4943932;28;20384;-79
2022/01/11 12:33:10;;;;;;;31.85;12.77;;;;;;;;;;4958855;28;20026;-80
2022/01/11 12:35:54;;;;;;;29.42;12.52;;;;;;;;;;4949505;28;20844;-80
2022/01/11 12:38:21;;;;;;;29.35;12.20;;;;;;;;;;4943746;28;20034;-79
2022/01/11 12:40:47;;;;;;;26.90;12.00;;;;;;;;;;4943073;28;20054;-79
2022/01/11 12:43:35;;;;;;;31.08;11.27;;;;;;;;;;4945743;28;20170;-79
2022/01/11 12:46:07;;;;;;;31.95;12.48;;;;;;;;;;4954569;28;20399;-79
2022/01/11 12:48:47;;;;;;;29.58;11.75;;;;;;;;;;4942111;28;20042;-79
2022/01/11 12:51:23;;;;;;;25.42;10.82;;;;;;;;;;4942502;28;20180;-80
2022/01/11 12:53:49;;;;;;;31.58;12.48;;;;;;;;;;4957462;28;20031;-80
2022/01/11 12:56:16;;;;;;;29.40;13.40;;;;;;;;;;4948859;28;20065;-79
2022/01/11 12:58:43;;;;;;;26.23;12.13;;;;;;;;;;4943901;28;20035;-80
2022/01/11 13:01:35;;;;;;;30.05;12.10;;;;;;;;;;4938804;28;20054;-80
2022/01/11 13:04:02;;;;;;;33.17;12.13;;;;;;;;;;4942859;28;20195;-80
2022/01/11 13:06:32;;;;;;;26.02;12.18;;;;;;;;;;4945438;28;20023;-79
2022/01/11 13:09:06;;;;;;;29.65;11.10;;;;;;;;;;4947980;28;20070;-79
2022/01/11 13:11:32;;;;;;;26.50;12.80;;;;;;;;;;4939044;28;20071;-79
2022/01/11 13:14:15;;;;;;;31.42;13.60;;;;;;;;;;4926981;29;20763;-80
2022/01/11 13:16:41;;;;;;;32.70;12.60;;;;;;;;;;4941548;28;20440;-79
2022/01/11 13:19:11;;;;;;;24.27;9.48;;;;;;;;;;4920947;28;20093;-80
2022/01/11 13:21:40;;;;;;;23.10;11.68;;;;;;;;;;4942503;28;20031;-79
2022/01/11 13:26:47;;;;;;;22.38;9.48;;;;;;;;;;4942893;28;20373;-79
2022/01/11 13:29:16;;;;;;;29.73;12.15;;;;;;;;;;4927563;29;20024;-80
2022/01/11 13:31:42;;;;;;;26.52;11.30;;;;;;;;;;4925130;28;20035;-80
2022/01/11 13:34:08;;;;;;;25.83;11.90;;;;;;;;;;4920222;28;20109;-80
2022/01/11 13:36:38;;;;;;;24.52;12.27;;;;;;;;;;4923822;28;20377;-80
2022/01/11 13:39:12;;;;;;;31.98;12.18;;;;;;;;;;4919746;28;20027;-81
2022/01/11 13:41:42;;;;;;;29.08;12.05;;;;;;;;;;4937230;28;20122;-80
2022/01/11 13:44:13;;;;;;;28.75;12.25;;;;;;;;;;4918674;28;20055;-80
2022/01/11 13:46:40;;;;;;;29.05;11.70;;;;;;;;;;4920849;29;20039;-80
2022/01/11 13:49:07;;;;;;;17.38;8.02;;;;;;;;;;4939577;28;20318;-80
2022/01/11 13:51:33;;;;;;;32.65;12.80;;;;;;;;;;4923001;28;20031;-80
2022/01/11 13:54:03;;;;;;;32.67;9.80;;;;;;;;;;4922897;29;20138;-80
2022/01/11 13:56:31;;;;;;;31.67;9.70;;;;;;;;;;4924512;29;20047;-79
2022/01/11 13:58:57;;;;;;;29.58;11.32;;;;;;;;;;4923032;28;20035;-80
2022/01/11 14:01:25;;;;;;;22.05;9.02;;;;;;;;;;4940135;28;20066;-80
2022/01/11 14:04:03;;;;;;;14.77;6.55;;;;;;;;;;4918831;29;20043;-79
2022/01/11 14:06:38;;;;;;;28.83;10.60;;;;;;;;;;4922912;28;20542;-80
2022/01/11 14:09:16;;;;;;;21.73;9.30;;;;;;;;;;4954096;28;20051;-79
2022/01/11 14:12:06;;;;;;;18.00;7.57;;;;;;;;;;4932109;28;20016;-79
2022/01/11 14:14:33;;;;;;;21.00;6.55;;;;;;;;;;4927724;29;20857;-80
2022/01/11 14:17:00;;;;;;;22.00;9.57;;;;;;;;;;4927469;28;20083;-80
2022/01/11 14:19:26;;;;;;;16.23;6.53;;;;;;;;;;4937267;28;20024;-80
2022/01/11 14:21:56;;;;;;;13.75;6.35;;;;;;;;;;4943373;28;20038;-80